createdAt,value
2023-03-03T00:02:20.099Z,1.90
2023-03-03T00:04:53.725Z,2.12
2023-03-03T00:07:27.099Z,1.37
2023-03-03T00:10:00.732Z,1.60
2023-03-03T00:12:36.383Z,1.57
2023-03-03T00:15:19.208Z,1.10
2023-03-03T00:17:53.090Z,1.32
2023-03-03T00:20:36.834Z,1.77
2023-03-03T00:23:32.263Z,1.17
2023-03-03T00:26:09.145Z,1.60
2023-03-03T00:28:48.387Z,2.25
2023-03-03T00:31:23.453Z,1.52
2023-03-03T00:33:59.954Z,1.75
2023-03-03T00:36:38.300Z,1.60
2023-03-03T00:39:21.396Z,1.50
2023-03-03T00:41:54.886Z,1.80
2023-03-03T00:44:42.858Z,1.57
2023-03-03T00:50:30.730Z,2.10
2023-03-03T00:55:43.334Z,1.55
2023-03-03T00:58:18.659Z,2.30
2023-03-03T01:00:53.646Z,1.82
2023-03-03T01:03:29.783Z,1.80
2023-03-03T01:06:03.250Z,2.00
2023-03-03T01:08:38.339Z,2.00
2023-03-03T01:11:18.431Z,1.75
2023-03-03T01:13:54.237Z,2.02
2023-03-03T01:16:27.757Z,1.77
2023-03-03T01:19:01.547Z,1.75
2023-03-03T01:21:35.367Z,1.70
2023-03-03T01:24:09.930Z,2.00
2023-03-03T01:26:43.509Z,1.50
2023-03-03T01:29:17.011Z,1.80
2023-03-03T01:31:50.609Z,2.12
2023-03-03T01:34:24.055Z,2.20
2023-03-03T01:36:57.843Z,2.02
2023-03-03T01:39:31.336Z,1.50
2023-03-03T01:42:06.007Z,2.12
2023-03-03T01:44:39.592Z,1.90
2023-03-03T01:47:16.304Z,2.20
2023-03-03T01:49:52.960Z,3.42
2023-03-03T01:52:29.152Z,3.10
2023-03-03T01:55:05.802Z,1.67
2023-03-03T01:57:41.917Z,1.65
2023-03-03T02:00:17.952Z,2.25
2023-03-03T02:02:52.525Z,2.12
2023-03-03T02:05:26.676Z,1.98
2023-03-03T02:08:00.170Z,1.80
2023-03-03T02:10:34.816Z,1.98
2023-03-03T02:13:08.615Z,2.00
2023-03-03T02:15:42.599Z,1.50
2023-03-03T02:18:18.449Z,1.72
2023-03-03T02:20:57.718Z,2.30
2023-03-03T02:23:34.634Z,1.62
2023-03-03T02:26:13.881Z,1.98
2023-03-03T02:28:48.227Z,1.95
2023-03-03T02:31:24.538Z,2.00
2023-03-03T02:33:59.791Z,1.52
2023-03-03T02:36:35.153Z,1.72
2023-03-03T02:39:11.561Z,2.27
2023-03-03T02:41:48.716Z,2.47
2023-03-03T02:46:56.672Z,2.30
2023-03-03T02:49:32.280Z,2.15
2023-03-03T02:52:09.992Z,2.00
2023-03-03T02:54:45.182Z,2.10
2023-03-03T02:57:18.637Z,1.72
2023-03-03T02:59:51.954Z,2.42
2023-03-03T03:02:27.013Z,2.10
2023-03-03T03:05:01.174Z,1.85
2023-03-03T03:07:34.676Z,1.87
2023-03-03T03:10:11.443Z,1.90
2023-03-03T03:12:45.453Z,1.70
2023-03-03T03:15:19.745Z,2.30
2023-03-03T03:17:53.641Z,2.08
2023-03-03T03:20:27.267Z,2.50
2023-03-03T03:23:00.917Z,1.98
2023-03-03T03:25:34.492Z,1.77
2023-03-03T03:28:08.661Z,1.80
2023-03-03T03:30:44.349Z,2.33
2023-03-03T03:33:17.909Z,2.08
2023-03-03T03:35:51.675Z,2.22
2023-03-03T03:38:25.950Z,1.60
2023-03-03T03:41:00.465Z,1.80
2023-03-03T03:43:34.159Z,1.95
2023-03-03T03:46:09.186Z,1.72
2023-03-03T03:48:42.854Z,2.17
2023-03-03T03:51:17.107Z,2.15
2023-03-03T03:53:50.494Z,1.92
2023-03-03T03:56:24.147Z,1.85
2023-03-03T03:58:59.075Z,2.30
2023-03-03T04:01:32.658Z,2.00
2023-03-03T04:04:06.297Z,1.67
2023-03-03T04:06:39.953Z,2.65
2023-03-03T04:09:13.792Z,1.90
2023-03-03T04:11:48.341Z,2.65
2023-03-03T04:14:22.941Z,2.15
2023-03-03T04:16:56.541Z,1.67
2023-03-03T04:19:30.552Z,1.75
2023-03-03T04:22:04.182Z,1.70
2023-03-03T04:24:37.854Z,2.40
2023-03-03T04:27:11.834Z,2.67
2023-03-03T04:29:48.291Z,1.90
2023-03-03T04:32:24.280Z,2.10
2023-03-03T04:35:07.325Z,1.85
2023-03-03T04:37:37.903Z,2.42
2023-03-03T04:40:14.251Z,3.05
2023-03-03T04:42:49.400Z,1.85
2023-03-03T04:45:23.493Z,2.20
2023-03-03T04:47:56.987Z,2.58
2023-03-03T04:50:30.424Z,2.22
2023-03-03T04:53:04.592Z,2.27
2023-03-03T04:55:40.194Z,3.02
2023-03-03T04:58:14.140Z,2.27
2023-03-03T05:00:47.804Z,4.00
2023-03-03T05:03:22.170Z,3.10
2023-03-03T05:05:55.988Z,4.42
2023-03-03T05:08:29.587Z,3.80
2023-03-03T05:11:02.981Z,3.92
2023-03-03T05:13:36.575Z,3.58
2023-03-03T05:16:11.185Z,3.67
2023-03-03T05:18:45.769Z,4.05
2023-03-03T05:21:19.408Z,3.08
2023-03-03T05:23:53.526Z,1.95
2023-03-03T05:26:27.011Z,2.15
2023-03-03T05:29:00.512Z,2.87
2023-03-03T05:31:34.542Z,2.72
2023-03-03T05:34:08.057Z,2.55
2023-03-03T05:36:41.692Z,2.05
2023-03-03T05:39:15.216Z,2.00
2023-03-03T05:41:48.726Z,1.90
2023-03-03T05:44:21.988Z,2.55
2023-03-03T05:46:56.814Z,1.65
2023-03-03T05:49:30.116Z,1.27
2023-03-03T05:52:03.884Z,3.00
2023-03-03T05:54:37.276Z,2.20
2023-03-03T05:57:10.760Z,1.75
2023-03-03T05:59:44.246Z,1.55
2023-03-03T06:02:18.043Z,2.60
2023-03-03T06:04:51.573Z,2.47
2023-03-03T06:07:24.951Z,1.80
2023-03-03T06:10:00.907Z,2.12
2023-03-03T06:12:36.145Z,2.20
2023-03-03T06:15:11.837Z,1.55
2023-03-03T06:17:45.192Z,1.77
2023-03-03T06:20:18.880Z,1.37
2023-03-03T06:22:52.192Z,2.20
2023-03-03T06:25:25.655Z,1.57
2023-03-03T06:27:58.828Z,2.58
2023-03-03T06:30:32.392Z,1.70
2023-03-03T06:33:06.174Z,2.60
2023-03-03T06:35:40.016Z,2.17
2023-03-03T06:38:13.707Z,2.62
2023-03-03T06:40:48.357Z,2.10
2023-03-03T06:43:22.090Z,2.15
2023-03-03T06:45:55.503Z,2.27
2023-03-03T06:48:29.111Z,2.05
2023-03-03T06:51:04.035Z,1.45
2023-03-03T06:53:38.084Z,2.33
2023-03-03T06:56:13.509Z,1.98
2023-03-03T06:58:46.934Z,2.27
2023-03-03T07:01:20.840Z,2.02
2023-03-03T07:03:54.272Z,2.45
2023-03-03T07:06:30.210Z,2.08
2023-03-03T07:09:03.894Z,1.90
2023-03-03T07:11:39.781Z,1.77
2023-03-03T07:14:16.671Z,1.92
2023-03-03T07:16:51.912Z,2.37
2023-03-03T07:19:28.239Z,2.20
2023-03-03T07:22:02.104Z,2.67
2023-03-03T07:24:35.771Z,2.58
2023-03-03T07:27:14.257Z,1.32
2023-03-03T07:29:49.645Z,1.70
2023-03-03T07:32:29.881Z,2.05
2023-03-03T07:35:03.403Z,2.12
2023-03-03T07:37:40.463Z,3.90
2023-03-03T07:40:36.225Z,1.53
2023-03-03T07:43:41.220Z,2.30
2023-03-03T07:49:27.570Z,2.12
2023-03-03T07:52:02.578Z,3.47
2023-03-03T07:54:40.648Z,3.27
2023-03-03T07:57:19.260Z,3.08
2023-03-03T07:59:54.718Z,3.90
2023-03-03T08:02:37.744Z,2.30
2023-03-03T08:05:32.223Z,2.92
2023-03-03T08:08:19.481Z,3.33
2023-03-03T08:10:54.612Z,2.58
2023-03-03T08:13:31.933Z,1.90
2023-03-03T08:16:09.400Z,1.90
2023-03-03T08:18:46.620Z,3.40
2023-03-03T08:21:22.310Z,2.05
2023-03-03T08:23:56.205Z,1.30
2023-03-03T08:26:29.780Z,2.00
2023-03-03T08:29:04.571Z,2.40
2023-03-03T08:31:41.548Z,2.35
2023-03-03T08:34:13.061Z,3.00
2023-03-03T08:36:47.601Z,2.20
2023-03-03T08:39:21.019Z,1.67
2023-03-03T08:41:54.439Z,2.80
2023-03-03T08:44:27.998Z,1.65
2023-03-03T08:47:01.397Z,1.67
2023-03-03T08:49:35.007Z,2.45
2023-03-03T08:52:08.410Z,1.92
2023-03-03T08:54:42.095Z,1.90
2023-03-03T08:57:15.929Z,2.05
2023-03-03T08:59:49.554Z,3.00
2023-03-03T09:02:23.078Z,2.05
2023-03-03T09:04:56.572Z,2.62
2023-03-03T09:07:30.170Z,2.05
2023-03-03T09:10:03.705Z,1.82
2023-03-03T09:12:39.532Z,2.70
2023-03-03T09:15:23.673Z,1.92
2023-03-03T09:17:59.241Z,2.65
2023-03-03T09:20:36.859Z,2.85
2023-03-03T09:23:33.892Z,2.00
2023-03-03T09:26:24.470Z,3.35
2023-03-03T09:29:01.615Z,1.15
2023-03-03T09:31:39.040Z,0.82
2023-03-03T09:34:25.347Z,2.08
2023-03-03T09:37:00.234Z,1.60
2023-03-03T09:39:35.787Z,1.52
2023-03-03T09:42:32.209Z,2.22
2023-03-03T09:45:45.340Z,1.80
2023-03-03T09:48:37.435Z,1.85
2023-03-03T09:51:33.817Z,1.82
2023-03-03T09:54:26.285Z,1.40
2023-03-03T09:57:04.260Z,1.57
2023-03-03T09:59:45.210Z,1.32
2023-03-03T10:02:33.988Z,1.30
2023-03-03T10:05:18.702Z,1.52
2023-03-03T10:08:04.566Z,2.17
2023-03-03T10:11:00.612Z,1.77
2023-03-03T10:13:40.803Z,2.25
2023-03-03T10:16:35.304Z,1.98
2023-03-03T10:19:14.832Z,2.77
2023-03-03T10:21:51.060Z,1.40
2023-03-03T10:24:29.938Z,1.22
2023-03-03T10:27:13.841Z,1.50
2023-03-03T10:29:50.746Z,1.70
2023-03-03T10:32:40.506Z,2.27
2023-03-03T10:36:05.972Z,1.85
2023-03-03T10:38:33.766Z,1.82
2023-03-03T10:41:15.766Z,1.37
2023-03-03T10:44:16.680Z,1.27
2023-03-03T10:47:05.688Z,1.65
2023-03-03T10:49:52.352Z,2.25
2023-03-03T10:52:40.948Z,2.25
2023-03-03T10:55:38.314Z,1.50
2023-03-03T10:58:55.315Z,2.17
2023-03-03T11:01:33.791Z,1.80
2023-03-03T11:04:38.629Z,1.57
2023-03-03T11:07:15.568Z,1.55
2023-03-03T11:09:56.725Z,1.55
2023-03-03T11:12:41.072Z,1.95
2023-03-03T11:15:39.285Z,1.82
2023-03-03T11:18:21.134Z,1.27
2023-03-03T11:20:59.760Z,1.90
2023-03-03T11:23:46.884Z,1.50
2023-03-03T11:26:24.899Z,1.12
2023-03-03T11:29:12.668Z,1.20
2023-03-03T11:31:49.825Z,1.60
2023-03-03T11:34:38.089Z,1.25
2023-03-03T11:37:14.120Z,1.55
2023-03-03T11:39:48.524Z,1.27
2023-03-03T11:42:26.242Z,1.22
2023-03-03T11:45:03.832Z,1.45
2023-03-03T11:47:39.486Z,0.93
2023-03-03T11:50:16.637Z,1.10
2023-03-03T11:52:53.842Z,1.20
2023-03-03T11:55:29.651Z,1.35
2023-03-03T11:58:08.424Z,1.15
2023-03-03T12:00:44.869Z,1.50
2023-03-03T12:03:25.645Z,1.70
2023-03-03T12:06:06.322Z,1.75
2023-03-03T12:08:48.352Z,1.12
2023-03-03T12:11:25.415Z,1.00
2023-03-03T12:14:03.547Z,1.13
2023-03-03T12:16:47.223Z,0.90
2023-03-03T12:19:34.671Z,1.32
2023-03-03T12:22:17.014Z,1.52
2023-03-03T12:25:09.264Z,0.82
2023-03-03T12:27:46.532Z,1.05
2023-03-03T12:30:24.908Z,0.85
2023-03-03T12:33:06.909Z,0.90
2023-03-03T12:35:43.524Z,1.50
2023-03-03T12:38:22.207Z,1.90
2023-03-03T12:41:01.731Z,1.07
2023-03-03T12:43:45.622Z,1.20
2023-03-03T12:46:28.517Z,1.98
2023-03-03T12:48:58.939Z,1.12
2023-03-03T12:51:39.473Z,1.30
2023-03-03T12:54:25.945Z,1.30
2023-03-03T12:57:02.360Z,1.30
2023-03-03T12:59:39.746Z,1.15
2023-03-03T13:02:34.620Z,1.72
2023-03-03T13:05:14.324Z,1.22
2023-03-03T13:07:51.684Z,0.95
2023-03-03T13:10:28.319Z,1.25
2023-03-03T13:13:04.618Z,1.17
2023-03-03T13:15:51.873Z,1.00
2023-03-03T13:18:38.462Z,1.47
2023-03-03T13:21:15.172Z,1.70
2023-03-03T13:23:53.802Z,1.52
2023-03-03T13:26:31.972Z,1.42
2023-03-03T13:29:13.282Z,1.80
2023-03-03T13:31:50.175Z,1.70
2023-03-03T13:34:32.916Z,1.43
2023-03-03T13:37:09.114Z,1.92
2023-03-03T13:39:45.293Z,2.95
2023-03-03T13:42:21.782Z,2.20
2023-03-03T13:44:57.119Z,1.35
2023-03-03T13:47:34.363Z,2.05
2023-03-03T13:50:16.617Z,1.30
2023-03-03T13:52:55.542Z,1.25
2023-03-03T13:55:32.444Z,1.90
2023-03-03T13:58:10.192Z,1.50
2023-03-03T14:00:57.349Z,2.37
2023-03-03T14:03:52.533Z,1.77
2023-03-03T14:06:28.097Z,1.47
2023-03-03T14:09:10.351Z,1.10
2023-03-03T14:11:49.711Z,1.10
2023-03-03T14:14:31.374Z,1.20
2023-03-03T14:17:07.876Z,1.50
2023-03-03T14:19:44.076Z,2.70
2023-03-03T14:22:24.410Z,1.60
2023-03-03T14:25:05.420Z,2.50
2023-03-03T14:27:41.421Z,2.22
2023-03-03T14:33:31.040Z,2.17
2023-03-03T14:36:07.437Z,2.27
2023-03-03T14:38:44.601Z,1.75
2023-03-03T14:41:38.334Z,3.12
2023-03-03T14:44:33.323Z,3.22
2023-03-03T14:47:24.232Z,2.25
2023-03-03T14:50:00.591Z,2.08
2023-03-03T14:55:29.107Z,3.35
2023-03-03T14:58:04.286Z,2.27
2023-03-03T15:00:38.624Z,1.20
2023-03-03T15:03:24.752Z,1.92
2023-03-03T15:05:59.018Z,2.95
2023-03-03T15:08:37.472Z,3.08
2023-03-03T15:11:24.033Z,3.83
2023-03-03T15:14:08.002Z,2.72
2023-03-03T15:16:43.211Z,3.60
2023-03-03T15:19:40.865Z,3.10
2023-03-03T15:22:22.397Z,3.17
2023-03-03T15:25:01.042Z,3.80
2023-03-03T15:27:38.373Z,3.50
2023-03-03T15:30:19.180Z,3.62
2023-03-03T15:32:57.568Z,2.77
2023-03-03T15:35:38.670Z,3.83
2023-03-03T15:38:18.027Z,3.95
2023-03-03T15:40:54.224Z,3.22
2023-03-03T15:43:31.334Z,3.20
2023-03-03T15:46:12.303Z,2.45
2023-03-03T15:48:54.082Z,3.40
2023-03-03T15:51:38.233Z,3.15
2023-03-03T15:54:23.757Z,3.55
2023-03-03T15:57:00.161Z,3.50
2023-03-03T15:59:46.181Z,3.00
2023-03-03T16:02:25.912Z,3.62
2023-03-03T16:05:02.135Z,3.10
2023-03-03T16:07:42.477Z,2.92
2023-03-03T16:10:22.828Z,5.08
2023-03-03T16:13:01.884Z,5.00
2023-03-03T16:15:43.700Z,5.58
2023-03-03T16:18:21.988Z,6.20
2023-03-03T16:21:01.744Z,6.03
2023-03-03T16:23:40.252Z,4.62
2023-03-03T16:26:19.143Z,4.17
2023-03-03T16:29:03.802Z,4.50
2023-03-03T16:31:40.890Z,4.25
2023-03-03T16:34:17.797Z,2.55
2023-03-03T16:37:01.942Z,3.42
2023-03-03T16:39:43.199Z,3.72
2023-03-03T16:42:21.788Z,3.47
2023-03-03T16:45:16.564Z,2.80
2023-03-03T16:47:57.648Z,3.47
2023-03-03T16:50:34.988Z,4.60
2023-03-03T16:53:14.127Z,2.67
2023-03-03T16:55:52.383Z,3.92
2023-03-03T16:58:32.011Z,3.45
2023-03-03T17:01:10.099Z,3.00
2023-03-03T17:03:55.159Z,2.98
2023-03-03T17:06:34.708Z,2.83
2023-03-03T17:09:32.212Z,2.10
2023-03-03T17:12:02.683Z,2.08
2023-03-03T17:14:44.285Z,2.90
2023-03-03T17:17:22.152Z,2.02
2023-03-03T17:22:39.305Z,2.62
2023-03-03T17:25:16.684Z,3.08
2023-03-03T17:27:59.051Z,3.00
2023-03-03T17:30:38.072Z,2.22
2023-03-03T17:33:19.297Z,3.00
2023-03-03T17:36:00.585Z,3.10
2023-03-03T17:38:46.453Z,3.15
2023-03-03T17:41:24.206Z,3.67
2023-03-03T17:46:36.655Z,2.72
2023-03-03T17:49:38.320Z,3.10
2023-03-03T17:52:37.404Z,2.20
2023-03-03T17:55:28.439Z,2.20
2023-03-03T17:58:33.964Z,2.20
2023-03-03T18:01:11.889Z,2.10
2023-03-03T18:03:58.339Z,3.60
2023-03-03T18:06:54.832Z,3.42
2023-03-03T18:09:46.706Z,3.05
2023-03-03T18:12:26.279Z,2.87
2023-03-03T18:15:23.562Z,2.52
2023-03-03T18:18:10.014Z,2.22
2023-03-03T18:24:19.070Z,3.00
2023-03-03T18:26:56.257Z,2.62
2023-03-03T18:29:33.217Z,1.52
2023-03-03T18:35:30.551Z,1.98
2023-03-03T18:38:47.059Z,2.37
2023-03-03T18:44:05.064Z,1.67
2023-03-03T18:46:52.982Z,1.42
2023-03-03T18:50:14.467Z,2.35
2023-03-03T18:53:20.776Z,2.20
2023-03-03T18:55:57.988Z,2.35
2023-03-03T18:58:38.369Z,2.42
2023-03-03T19:01:47.612Z,2.50
2023-03-03T19:04:27.144Z,2.65
2023-03-03T19:07:27.849Z,5.58
2023-03-03T19:10:03.993Z,5.80
2023-03-03T19:12:55.580Z,5.78
2023-03-03T19:18:39.198Z,7.03
2023-03-03T19:21:24.248Z,4.97
2023-03-03T19:24:01.243Z,2.92
2023-03-03T19:26:45.064Z,2.95
2023-03-03T19:29:42.374Z,2.77
2023-03-03T19:32:32.889Z,2.87
2023-03-03T19:35:18.537Z,1.82
2023-03-03T19:37:56.665Z,1.60
2023-03-03T19:40:35.177Z,2.27
2023-03-03T19:43:15.643Z,2.17
2023-03-03T19:45:57.814Z,2.02
2023-03-03T19:48:37.304Z,2.15
2023-03-03T19:51:15.611Z,2.55
2023-03-03T19:53:54.331Z,1.85
2023-03-03T19:56:33.637Z,2.87
2023-03-03T19:59:24.581Z,1.80
2023-03-03T20:02:06.505Z,2.50
2023-03-03T20:05:19.812Z,2.50
2023-03-03T20:07:57.998Z,2.15
2023-03-03T20:13:46.267Z,2.55
2023-03-03T20:16:28.028Z,2.85
2023-03-03T20:19:26.272Z,2.30
2023-03-03T20:22:08.318Z,2.72
2023-03-03T20:25:02.250Z,3.25
2023-03-03T20:27:39.943Z,3.30
2023-03-03T20:30:31.523Z,2.77
2023-03-03T20:33:14.133Z,2.95
2023-03-03T20:35:52.935Z,3.22
2023-03-03T20:38:31.545Z,2.90
2023-03-03T20:41:09.840Z,2.58
2023-03-03T20:43:51.491Z,3.05
2023-03-03T20:46:29.114Z,2.80
2023-03-03T20:51:42.546Z,2.60
2023-03-03T20:54:20.764Z,3.33
2023-03-03T20:56:57.610Z,2.75
2023-03-03T20:59:34.168Z,2.35
2023-03-03T21:02:12.931Z,2.62
2023-03-03T21:04:46.468Z,2.87
2023-03-03T21:07:29.405Z,2.17
2023-03-03T21:10:16.631Z,2.60
2023-03-03T21:12:50.358Z,2.58
2023-03-03T21:15:36.021Z,2.52
2023-03-03T21:18:24.777Z,2.40
2023-03-03T21:20:58.327Z,3.22
2023-03-03T21:23:32.065Z,2.08
2023-03-03T21:26:54.996Z,2.65
2023-03-03T21:29:34.882Z,2.92
2023-03-03T21:32:17.541Z,2.90
2023-03-03T21:35:12.629Z,3.70
2023-03-03T21:37:55.061Z,3.15
2023-03-03T21:40:31.208Z,3.62
2023-03-03T21:43:04.437Z,4.50
2023-03-03T21:45:38.419Z,6.25
2023-03-03T21:48:11.972Z,6.58
2023-03-03T21:50:47.326Z,6.35
2023-03-03T21:53:20.972Z,6.25
2023-03-03T21:55:54.890Z,6.42
2023-03-03T21:58:28.320Z,5.58
2023-03-03T22:01:01.885Z,5.90
2023-03-03T22:03:35.725Z,6.03
2023-03-03T22:06:09.709Z,4.75
2023-03-03T22:08:43.135Z,2.42
2023-03-03T22:11:16.794Z,3.35
2023-03-03T22:13:50.455Z,2.40
2023-03-03T22:16:23.889Z,3.55
2023-03-03T22:18:57.479Z,5.65
2023-03-03T22:21:31.304Z,7.40
2023-03-03T22:24:05.223Z,7.90
2023-03-03T22:26:38.954Z,7.62
2023-03-03T22:29:12.302Z,7.37
2023-03-03T22:31:46.084Z,7.87
2023-03-03T22:34:20.524Z,8.03
2023-03-03T22:36:53.951Z,5.53
2023-03-03T22:39:27.132Z,6.00
2023-03-03T22:42:00.876Z,6.30
2023-03-03T22:44:35.997Z,7.45
2023-03-03T22:47:09.772Z,5.47
2023-03-03T22:49:43.314Z,4.30
2023-03-03T22:52:18.052Z,6.30
2023-03-03T22:54:51.656Z,8.00
2023-03-03T22:57:25.451Z,7.97
2023-03-03T23:00:00.084Z,8.70
2023-03-03T23:02:35.040Z,7.40
2023-03-03T23:05:11.182Z,8.13
2023-03-03T23:07:44.548Z,3.15
2023-03-03T23:10:17.336Z,2.80
2023-03-03T23:12:50.695Z,2.72
2023-03-03T23:15:24.322Z,2.65
2023-03-03T23:17:57.963Z,3.62
2023-03-03T23:20:32.558Z,3.33
2023-03-03T23:23:06.160Z,2.62
2023-03-03T23:25:39.691Z,2.87
2023-03-03T23:28:14.846Z,3.20
2023-03-03T23:30:48.344Z,2.95
2023-03-03T23:33:22.155Z,4.08
2023-03-03T23:35:56.056Z,3.75
2023-03-03T23:38:31.582Z,2.27
2023-03-03T23:41:05.649Z,2.42
2023-03-03T23:43:39.359Z,1.72
2023-03-03T23:46:12.896Z,3.67
2023-03-03T23:48:46.506Z,3.10
2023-03-03T23:51:20.219Z,3.27
2023-03-03T23:53:53.905Z,3.45
2023-03-03T23:56:27.460Z,3.35
2023-03-03T23:59:01.074Z,3.60
